Terminal Aerodrome Forecast
Issued by NWS Melbourne, FL

Home | Current Version | Previous Version | Text Only | Print | Product List | Glossary On
Versions: 1 2 3 4 5 6 7 8 9 10 11 12 13 14 15 16
000
FTUS42 KMLB 071203 AAA
TAFDAB
TAF AMD
KDAB 071203Z 0712/0812 27005KT 2SM BR BKN008
      TEMPO 0712/0713 1/2SM FG BKN002
     FM071400 31007KT P6SM FEW020 SCT250
     FM072100 05006KT P6SM SCT250
     FM080000 VRB03KT P6SM FEW250=

USA.gov is the U.S. government's official web portal to all federal, state and local government web resources and services.